Time;durP1;ratioP1;P1;durP2;ratioP2;P2;SDS_P1;SDS_P2;PMS_P1;PMS_P2;Temp;Humidity;BMP_temperature;BMP_pressure;BME280_temperature;BME280_humidity;BME280_pressure;Samples;Min_cycle;Max_cycle;Signal;HPM_P1;HPM_P2
2023/03/02 00:00:24;;;;;;;49.73;21.97;;;;;;;-141.97;100.00;47792.03;5095401;28;20552;-91
2023/03/02 00:02:50;;;;;;;49.40;22.17;;;;;;;-141.97;100.00;47809.31;5097713;28;20184;-91
2023/03/02 00:05:15;;;;;;;52.97;22.27;;;;;;;-141.97;100.00;47826.63;5096334;28;20270;-91
2023/03/02 00:07:41;;;;;;;51.20;22.73;;;;;;;-141.97;100.00;47799.72;5078786;28;20183;-91
2023/03/02 00:10:07;;;;;;;48.30;21.80;;;;;;;-141.97;100.00;47697.84;5079361;28;20156;-90
2023/03/02 00:12:33;;;;;;;45.83;21.23;;;;;;;-141.97;100.00;47713.22;5096076;28;20247;-91
2023/03/02 00:14:59;;;;;;;47.30;20.50;;;;;;;-141.97;100.00;47711.28;5098389;28;20261;-90
2023/03/02 00:17:27;;;;;;;43.97;19.93;;;;;;;-141.97;100.00;47747.81;5105031;28;20235;-90
2023/03/02 00:20:10;;;;;;;40.90;18.93;;;;;;;-141.97;100.00;47957.34;5115398;28;20183;-91
2023/03/02 00:22:41;;;;;;;40.00;18.53;;;;;;;-141.97;100.00;47847.75;5097951;28;20786;-92
2023/03/02 00:25:07;;;;;;;41.30;17.83;;;;;;;-141.97;100.00;47801.63;5096029;28;20445;-89
2023/03/02 00:27:40;;;;;;;42.67;18.30;;;;;;;-141.97;100.00;47834.31;5078525;28;20164;-90
2023/03/02 00:30:07;;;;;;;42.93;17.67;;;;;;;-141.97;100.00;47817.00;5064149;28;20861;-89
2023/03/02 00:32:33;;;;;;;38.43;17.10;;;;;;;-141.97;100.00;47847.75;5058935;28;20158;-90
2023/03/02 00:34:58;;;;;;;41.33;17.73;;;;;;;-141.97;100.00;47905.44;5056997;28;20502;-91
2023/03/02 00:37:24;;;;;;;41.80;17.13;;;;;;;-141.97;100.00;47811.25;5057795;28;20197;-89
2023/03/02 00:39:53;;;;;;;41.03;17.57;;;;;;;-141.97;100.00;47770.88;5055894;28;20158;-89
2023/03/02 00:42:19;;;;;;;42.50;17.60;;;;;;;-141.97;100.00;47861.22;5056272;28;20170;-89
2023/03/02 00:44:45;;;;;;;41.70;17.43;;;;;;;-141.97;100.00;47747.81;5070866;28;20439;-89
2023/03/02 00:47:10;;;;;;;43.17;17.00;;;;;;;-141.97;100.00;47861.22;5047690;28;20923;-89
2023/03/02 00:49:36;;;;;;;38.97;16.63;;;;;;;-141.97;100.00;47934.25;5071309;28;20168;-89
2023/03/02 00:52:03;;;;;;;33.90;15.40;;;;;;;-141.97;100.00;47922.72;5054887;28;20661;-89
2023/03/02 00:54:28;;;;;;;35.77;15.60;;;;;;;-141.97;100.00;47899.66;5050645;28;20618;-89
2023/03/02 00:56:54;;;;;;;35.87;15.53;;;;;;;-141.97;100.00;47868.91;5071714;28;20423;-90
2023/03/02 00:59:25;;;;;;;32.70;13.73;;;;;;;-141.97;100.00;47866.97;5055492;28;20161;-89
2023/03/02 01:01:56;;;;;;;32.60;14.33;;;;;;;-141.97;100.00;47776.63;5053350;28;20165;-89
2023/03/02 01:04:40;;;;;;;33.83;14.67;;;;;;;-141.97;100.00;47834.31;5074234;28;20813;-89
2023/03/02 01:07:09;;;;;;;31.83;14.30;;;;;;;-141.97;100.00;47817.00;5054985;28;20396;-89
2023/03/02 01:09:36;;;;;;;33.50;14.77;;;;;;;-141.97;100.00;47818.94;5050844;28;20420;-88
2023/03/02 01:12:01;;;;;;;31.00;13.83;;;;;;;-141.97;100.00;47891.97;5054696;28;20410;-89
2023/03/02 01:14:27;;;;;;;34.77;14.60;;;;;;;-141.97;100.00;47853.53;5048360;28;20396;-89
2023/03/02 01:16:52;;;;;;;32.13;13.83;;;;;;;-141.97;100.00;47938.09;5055069;28;20225;-88
2023/03/02 01:19:18;;;;;;;32.50;14.63;;;;;;;-141.97;100.00;47795.88;5057790;28;20532;-88
2023/03/02 01:21:43;;;;;;;33.87;13.77;;;;;;;-141.97;100.00;47966.94;5055142;28;20272;-88
2023/03/02 01:24:10;;;;;;;31.30;14.07;;;;;;;-141.97;100.00;47793.94;5062893;28;20276;-89
2023/03/02 01:26:36;;;;;;;35.30;14.20;;;;;;;-141.97;100.00;47884.28;5069986;28;20172;-90
2023/03/02 01:29:03;;;;;;;30.20;14.33;;;;;;;-141.97;100.00;47911.19;5056144;28;20404;-89
2023/03/02 01:31:29;;;;;;;32.73;14.60;;;;;;;-141.97;100.00;47849.69;5055213;28;20158;-89
2023/03/02 01:33:54;;;;;;;34.77;15.00;;;;;;;-141.97;100.00;47840.06;5054473;28;20227;-90
2023/03/02 01:36:21;;;;;;;33.87;15.50;;;;;;;-141.97;100.00;47922.72;5047052;28;20852;-89
2023/03/02 01:38:46;;;;;;;34.40;15.87;;;;;;;-141.97;100.00;47857.38;5070222;28;20735;-91
2023/03/02 01:41:12;;;;;;;35.23;16.27;;;;;;;-141.97;100.00;47886.22;5063663;28;20165;-89
2023/03/02 01:43:37;;;;;;;37.70;16.30;;;;;;;-141.97;100.00;47755.50;5059434;28;20169;-90
2023/03/02 01:46:24;;;;;;;41.73;18.93;;;;;;;-141.97;100.00;47859.28;5056466;28;20169;-89
2023/03/02 01:48:58;;;;;;;39.30;18.30;;;;;;;-141.97;100.00;47845.84;5054751;28;20186;-88
2023/03/02 01:51:26;;;;;;;40.90;18.43;;;;;;;-141.97;100.00;47786.25;5054408;28;20153;-89
2023/03/02 01:53:55;;;;;;;45.20;20.87;;;;;;;-141.97;100.00;47880.44;5051390;28;20259;-89
2023/03/02 01:56:30;;;;;;;42.27;19.67;;;;;;;-141.97;100.00;47882.38;5053808;28;20535;-90
2023/03/02 01:59:00;;;;;;;39.10;18.77;;;;;;;-141.97;100.00;47949.66;5054927;28;20414;-89
2023/03/02 02:01:29;;;;;;;42.27;19.60;;;;;;;-141.97;100.00;47843.91;5048175;28;20158;-89
2023/03/02 02:03:55;;;;;;;41.17;18.77;;;;;;;-141.97;100.00;47928.50;5052966;28;20569;-89
2023/03/02 02:06:23;;;;;;;44.17;20.13;;;;;;;-141.97;100.00;47866.97;5053994;28;20445;-90
2023/03/02 02:08:51;;;;;;;39.53;19.07;;;;;;;-141.97;100.00;47924.66;5053915;28;20442;-89
2023/03/02 02:11:17;;;;;;;44.43;19.70;;;;;;;-141.97;100.00;47770.88;5047543;28;20628;-90
2023/03/02 02:13:43;;;;;;;45.40;20.07;;;;;;;-141.97;100.00;47905.44;5052487;28;20412;-89
2023/03/02 02:16:08;;;;;;;45.27;20.60;;;;;;;-141.97;100.00;47745.88;5053197;28;20279;-88
2023/03/02 02:18:38;;;;;;;49.43;20.73;;;;;;;-141.97;100.00;47820.84;5053714;28;20408;-89
2023/03/02 02:21:04;;;;;;;42.83;20.40;;;;;;;-141.97;100.00;47813.16;5053111;28;20644;-88
2023/03/02 02:23:44;;;;;;;46.63;19.97;;;;;;;-141.97;100.00;47920.81;5048016;28;20212;-89
2023/03/02 02:26:19;;;;;;;43.07;19.27;;;;;;;-141.97;100.00;47847.75;5070794;28;20192;-90
2023/03/02 02:28:56;;;;;;;40.27;18.30;;;;;;;-141.97;100.00;47893.91;5052933;28;20173;-89
2023/03/02 02:31:35;;;;;;;35.57;16.03;;;;;;;-141.97;100.00;47949.66;5048025;28;20257;-89
2023/03/02 02:34:09;;;;;;;33.67;15.63;;;;;;;-141.97;100.00;47895.81;5054625;28;20408;-90
2023/03/02 02:36:40;;;;;;;34.67;14.97;;;;;;;-141.97;100.00;47880.44;5065602;28;20161;-89
2023/03/02 02:39:10;;;;;;;35.37;15.10;;;;;;;-141.97;100.00;47834.31;5047078;28;20836;-88
2023/03/02 02:41:38;;;;;;;32.40;14.47;;;;;;;-141.97;100.00;47822.78;5072607;28;20435;-89
2023/03/02 02:44:04;;;;;;;32.27;13.40;;;;;;;-141.97;100.00;47936.19;5072890;28;20458;-89
2023/03/02 02:46:31;;;;;;;27.60;11.57;;;;;;;-141.97;100.00;47803.56;5075545;28;20873;-89
2023/03/02 02:48:56;;;;;;;22.83;11.20;;;;;;;-141.97;100.00;47761.25;5073946;28;20200;-88
2023/03/02 02:51:26;;;;;;;28.70;11.80;;;;;;;-141.97;100.00;47836.22;5057233;28;20495;-86
2023/03/02 02:54:00;;;;;;;29.03;11.97;;;;;;;-141.97;100.00;47826.63;5077908;28;20169;-87
2023/03/02 02:56:31;;;;;;;27.13;11.97;;;;;;;-141.97;100.00;47888.13;5060291;28;20410;-86
2023/03/02 02:59:03;;;;;;;26.43;11.23;;;;;;;-141.97;100.00;47922.72;5066220;28;20415;-86
2023/03/02 03:01:28;;;;;;;28.57;11.73;;;;;;;-141.97;100.00;47824.69;5088257;28;20169;-87
2023/03/02 03:04:02;;;;;;;25.23;11.67;;;;;;;-141.97;100.00;47995.78;5083805;28;20434;-89
2023/03/02 03:06:40;;;;;;;27.30;11.80;;;;;;;-141.97;100.00;47818.94;5076180;28;20260;-88
2023/03/02 03:09:07;;;;;;;30.30;13.83;;;;;;;-141.97;100.00;47857.38;5074831;28;20402;-88
2023/03/02 03:11:35;;;;;;;37.13;14.73;;;;;;;-141.97;100.00;47834.31;5075852;28;20191;-89
2023/03/02 03:14:11;;;;;;;28.47;15.03;;;;;;;-141.97;100.00;47811.25;5073281;28;20181;-89
2023/03/02 03:16:39;;;;;;;31.93;14.83;;;;;;;-141.97;100.00;47849.69;5076129;28;20211;-90
2023/03/02 03:19:25;;;;;;;31.40;14.60;;;;;;;-141.97;100.00;47868.91;5073072;28;20164;-90
2023/03/02 03:21:53;;;;;;;33.03;16.47;;;;;;;-141.97;100.00;47845.84;5055044;28;20169;-89
2023/03/02 03:24:20;;;;;;;31.87;15.17;;;;;;;-141.97;100.00;47836.22;5072530;28;20199;-89
2023/03/02 03:26:46;;;;;;;29.97;15.37;;;;;;;-141.97;100.00;47776.63;5054379;28;20952;-89
2023/03/02 03:29:12;;;;;;;29.03;15.17;;;;;;;-141.97;100.00;47807.41;5046157;28;20867;-90
2023/03/02 03:31:38;;;;;;;33.30;14.97;;;;;;;-141.97;100.00;47780.47;5034044;28;20408;-89
2023/03/02 03:34:04;;;;;;;31.00;15.00;;;;;;;-141.97;100.00;47795.88;5034688;28;20162;-90
2023/03/02 03:36:30;;;;;;;31.17;15.03;;;;;;;-141.97;100.00;47818.94;5051946;28;20169;-89
2023/03/02 03:38:57;;;;;;;38.90;16.07;;;;;;;-141.97;100.00;47807.41;5052039;28;20196;-89
2023/03/02 03:41:23;;;;;;;32.40;15.50;;;;;;;-141.97;100.00;47815.09;5051807;28;20924;-89
2023/03/02 03:43:49;;;;;;;27.93;13.40;;;;;;;-141.97;100.00;47840.06;5052427;28;20171;-89
2023/03/02 03:46:14;;;;;;;29.10;14.57;;;;;;;-141.97;100.00;47832.38;5036679;28;20408;-89
2023/03/02 03:48:40;;;;;;;31.90;14.47;;;;;;;-141.97;100.00;47803.56;5052220;28;20166;-89
2023/03/02 03:51:05;;;;;;;31.03;15.33;;;;;;;-141.97;100.00;47865.06;5051160;28;20228;-88
2023/03/02 03:53:31;;;;;;;32.13;15.43;;;;;;;-141.97;100.00;47905.44;5034124;28;20165;-88
2023/03/02 03:55:56;;;;;;;29.20;14.70;;;;;;;-141.97;100.00;47840.06;5052083;28;20242;-88
2023/03/02 03:58:23;;;;;;;29.90;15.07;;;;;;;-141.97;100.00;47980.41;5052463;28;20351;-88
2023/03/02 04:00:49;;;;;;;29.10;14.30;;;;;;;-141.97;100.00;47805.47;5051798;28;20161;-88
2023/03/02 04:03:15;;;;;;;27.77;14.40;;;;;;;-141.97;100.00;47855.44;5051637;28;20255;-88
2023/03/02 04:05:41;;;;;;;31.40;14.40;;;;;;;-141.97;100.00;47934.25;5047736;28;20432;-88
2023/03/02 04:08:07;;;;;;;29.40;14.87;;;;;;;-141.97;100.00;47757.41;5052605;28;20410;-89
2023/03/02 04:10:32;;;;;;;29.43;15.17;;;;;;;-141.97;100.00;47845.84;5054374;28;20192;-89
2023/03/02 04:12:58;;;;;;;29.33;14.90;;;;;;;-141.97;100.00;47949.66;5053072;28;20166;-90
2023/03/02 04:15:24;;;;;;;27.70;14.57;;;;;;;-141.97;100.00;47872.75;5052684;28;20539;-89
2023/03/02 04:17:50;;;;;;;30.10;15.50;;;;;;;-141.97;100.00;47842.00;5051869;28;20283;-91
2023/03/02 04:20:16;;;;;;;29.60;15.00;;;;;;;-141.97;100.00;47968.88;5052953;28;20165;-88
2023/03/02 04:22:44;;;;;;;31.17;15.63;;;;;;;-141.97;100.00;47834.31;5051366;28;20487;-89
2023/03/02 04:25:11;;;;;;;31.53;15.47;;;;;;;-141.97;100.00;47941.94;5040275;28;20459;-88
2023/03/02 04:27:37;;;;;;;34.83;15.63;;;;;;;-141.97;100.00;47797.78;5054357;28;20835;-89
2023/03/02 04:30:03;;;;;;;35.17;16.73;;;;;;;-141.97;100.00;47868.91;5055851;28;20412;-89
2023/03/02 04:32:29;;;;;;;32.40;16.13;;;;;;;-141.97;100.00;47830.47;5056826;28;20927;-89
2023/03/02 04:34:54;;;;;;;33.23;15.83;;;;;;;-141.97;100.00;47772.78;5056130;28;20482;-89
2023/03/02 04:37:20;;;;;;;34.20;16.10;;;;;;;-141.97;100.00;47809.31;5055971;28;20180;-88
2023/03/02 04:39:49;;;;;;;33.03;15.23;;;;;;;-141.97;100.00;47895.81;5058324;28;20544;-89
2023/03/02 04:42:15;;;;;;;34.40;16.60;;;;;;;-141.97;100.00;47915.03;5048247;28;20276;-89
2023/03/02 04:44:40;;;;;;;34.70;16.83;;;;;;;-141.97;100.00;47826.63;5054559;28;20479;-89
2023/03/02 04:47:06;;;;;;;33.53;16.10;;;;;;;-141.97;100.00;47838.16;5056446;28;20625;-89
2023/03/02 04:49:31;;;;;;;36.97;17.13;;;;;;;-141.97;100.00;47880.44;5055494;28;20713;-89
2023/03/02 04:51:57;;;;;;;32.93;16.87;;;;;;;-141.97;100.00;47776.63;5056334;28;20169;-89
2023/03/02 04:54:25;;;;;;;34.93;17.53;;;;;;;-141.97;100.00;47911.19;5055941;28;20169;-89
2023/03/02 04:56:51;;;;;;;38.60;18.63;;;;;;;-141.97;100.00;47901.59;5056295;28;20173;-88
2023/03/02 04:59:21;;;;;;;42.67;22.30;;;;;;;-141.97;100.00;47815.09;5058390;28;20503;-89
2023/03/02 05:01:47;;;;;;;37.00;17.73;;;;;;;-141.97;100.00;47832.38;5057272;28;20412;-89
2023/03/02 05:04:13;;;;;;;38.03;17.20;;;;;;;-141.97;100.00;47822.78;5037927;28;20452;-88
2023/03/02 05:06:38;;;;;;;32.87;16.47;;;;;;;-141.97;100.00;47955.41;5038162;28;20418;-89
2023/03/02 05:09:04;;;;;;;41.77;21.63;;;;;;;-141.97;100.00;47905.44;5054451;28;20161;-88
2023/03/02 05:11:30;;;;;;;35.67;17.33;;;;;;;-141.97;100.00;47828.53;5057929;28;20169;-88
2023/03/02 05:13:59;;;;;;;50.07;25.63;;;;;;;-141.97;100.00;47780.47;5056039;28;20545;-89
2023/03/02 05:16:27;;;;;;;36.67;17.80;;;;;;;-141.97;100.00;47845.84;5055028;28;20986;-89
2023/03/02 05:18:53;;;;;;;51.43;26.13;;;;;;;-141.97;100.00;47890.06;5058905;28;21373;-89
2023/03/02 05:21:19;;;;;;;40.00;19.43;;;;;;;-141.97;100.00;47938.09;5074515;28;20434;-89
2023/03/02 05:23:45;;;;;;;69.83;33.27;;;;;;;-141.97;100.00;47820.84;5075301;28;20647;-89
2023/03/02 05:26:11;;;;;;;51.63;25.63;;;;;;;-141.97;100.00;47943.88;5057896;28;20169;-89
2023/03/02 05:28:37;;;;;;;45.20;21.90;;;;;;;-141.97;100.00;47880.44;5058829;28;20613;-89
2023/03/02 05:31:02;;;;;;;41.33;19.60;;;;;;;-141.97;100.00;47801.63;5073790;28;20564;-89
2023/03/02 05:33:28;;;;;;;38.03;19.73;;;;;;;-141.97;100.00;47866.97;5057476;28;20411;-89
2023/03/02 05:35:54;;;;;;;38.60;18.50;;;;;;;-141.97;100.00;47768.94;5068798;28;20172;-90
2023/03/02 05:38:20;;;;;;;42.17;19.03;;;;;;;-141.97;100.00;47826.63;5055492;28;20480;-90
2023/03/02 05:40:47;;;;;;;34.23;17.27;;;;;;;-141.97;100.00;47866.97;5051010;28;20269;-90
2023/03/02 05:43:17;;;;;;;44.10;19.17;;;;;;;-141.97;100.00;47822.78;5054847;28;20170;-89
2023/03/02 05:45:44;;;;;;;40.00;18.93;;;;;;;-141.97;100.00;47966.94;5054977;28;20213;-88
2023/03/02 05:48:12;;;;;;;40.20;17.27;;;;;;;-141.97;100.00;47865.06;5058556;28;20161;-88
2023/03/02 05:50:37;;;;;;;45.83;18.40;;;;;;;-141.97;100.00;47926.56;5062532;28;20201;-89
2023/03/02 05:53:03;;;;;;;42.50;19.43;;;;;;;-141.97;100.00;47797.78;5065707;28;20170;-88
2023/03/02 05:55:29;;;;;;;45.53;22.80;;;;;;;-141.97;100.00;47826.63;5061466;28;20161;-89
2023/03/02 05:57:55;;;;;;;43.30;22.30;;;;;;;-141.97;100.00;47820.84;5055668;28;20173;-89
2023/03/02 06:00:21;;;;;;;46.30;20.07;;;;;;;-141.97;100.00;47774.72;5076488;28;20181;-88
2023/03/02 06:02:46;;;;;;;40.77;18.93;;;;;;;-141.97;100.00;47903.50;5074128;28;20170;-89
2023/03/02 06:05:17;;;;;;;35.23;19.00;;;;;;;-141.97;100.00;47857.38;5047733;28;20790;-89
2023/03/02 06:07:43;;;;;;;39.07;18.47;;;;;;;-141.97;100.00;47795.88;5056451;28;20173;-89
2023/03/02 06:10:11;;;;;;;40.27;18.77;;;;;;;-141.97;100.00;47909.28;5045865;28;20470;-90
2023/03/02 06:12:37;;;;;;;38.20;18.03;;;;;;;-141.97;100.00;47742.03;5054312;28;20169;-89
2023/03/02 06:15:04;;;;;;;37.53;19.43;;;;;;;-141.97;100.00;47747.81;5055345;28;20400;-89
2023/03/02 06:17:30;;;;;;;36.30;18.33;;;;;;;-141.97;100.00;47818.94;5037306;28;20716;-88
2023/03/02 06:19:55;;;;;;;36.20;18.77;;;;;;;-141.97;100.00;47795.88;5056957;28;20184;-89
2023/03/02 06:22:21;;;;;;;38.97;17.50;;;;;;;-141.97;100.00;47941.94;5076438;28;20568;-88
2023/03/02 06:24:46;;;;;;;33.60;17.17;;;;;;;-141.97;100.00;47895.81;5074645;28;20246;-89
2023/03/02 06:27:13;;;;;;;35.20;17.83;;;;;;;-141.97;100.00;47767.03;5056116;28;20189;-90
2023/03/02 06:29:38;;;;;;;38.20;18.07;;;;;;;-141.97;100.00;47826.63;5074312;28;20252;-91
2023/03/02 06:32:04;;;;;;;42.23;20.10;;;;;;;-141.97;100.00;47842.00;5056591;28;20467;-88
2023/03/02 06:34:32;;;;;;;42.63;19.57;;;;;;;-141.97;100.00;47815.09;5073973;28;20669;-87
2023/03/02 06:36:57;;;;;;;42.03;18.83;;;;;;;-141.97;100.00;47918.88;5055984;28;20169;-88
2023/03/02 06:39:23;;;;;;;38.63;18.87;;;;;;;-141.97;100.00;47916.97;5073406;28;20646;-89
2023/03/02 06:41:49;;;;;;;45.53;18.97;;;;;;;-141.97;100.00;47932.34;5073881;28;20677;-89
2023/03/02 06:44:16;;;;;;;38.23;18.50;;;;;;;-141.97;100.00;47788.19;5073912;28;20273;-91
2023/03/02 06:46:42;;;;;;;39.40;17.50;;;;;;;-141.97;100.00;47732.44;5073974;28;20601;-89
2023/03/02 06:49:09;;;;;;;37.93;17.97;;;;;;;-141.97;100.00;47718.97;5072995;28;20407;-90
2023/03/02 06:51:35;;;;;;;43.87;17.83;;;;;;;-141.97;100.00;47899.66;5074598;28;20410;-90
2023/03/02 06:54:01;;;;;;;44.47;20.43;;;;;;;-141.97;100.00;47878.53;5055489;28;20244;-90
2023/03/02 06:56:26;;;;;;;46.63;19.93;;;;;;;-141.97;100.00;47740.13;5056754;28;20408;-91
2023/03/02 06:58:52;;;;;;;40.47;18.83;;;;;;;-141.97;100.00;47934.25;5073992;28;20194;-90
2023/03/02 07:01:18;;;;;;;40.30;19.03;;;;;;;-141.97;100.00;47826.63;5075227;28;20538;-89
2023/03/02 07:03:44;;;;;;;37.70;18.47;;;;;;;-141.97;100.00;47757.41;5074368;28;20169;-91
2023/03/02 07:06:11;;;;;;;43.87;19.10;;;;;;;-141.97;100.00;47880.44;5058335;28;20192;-90
2023/03/02 07:08:37;;;;;;;36.47;17.17;;;;;;;-141.97;100.00;47730.50;5076391;28;20161;-92
2023/03/02 07:11:11;;;;;;;37.50;18.33;;;;;;;-141.97;100.00;47780.47;5055535;28;20437;-89
2023/03/02 07:13:37;;;;;;;36.33;17.23;;;;;;;-141.97;100.00;47790.09;5076116;28;20700;-90
2023/03/02 07:16:13;;;;;;;42.93;19.03;;;;;;;-141.97;100.00;47870.81;5078774;28;20879;-91
2023/03/02 07:18:39;;;;;;;40.43;17.90;;;;;;;-141.97;100.00;47882.38;5082022;28;20419;-89
2023/03/02 07:21:05;;;;;;;40.20;18.50;;;;;;;-141.97;100.00;47815.09;5075185;28;20410;-89
2023/03/02 07:23:31;;;;;;;41.30;18.40;;;;;;;-141.97;100.00;47945.81;5073016;28;20168;-89
2023/03/02 07:25:56;;;;;;;42.70;19.23;;;;;;;-141.97;100.00;47788.19;5073573;28;20500;-90
2023/03/02 07:28:23;;;;;;;43.97;19.50;;;;;;;-141.97;100.00;47874.69;5073984;28;20168;-90
2023/03/02 07:30:49;;;;;;;44.03;18.40;;;;;;;-141.97;100.00;47799.72;5073468;28;20172;-89
2023/03/02 07:33:14;;;;;;;47.20;18.77;;;;;;;-141.97;100.00;47913.13;5056327;28;20164;-89
2023/03/02 07:35:40;;;;;;;44.53;19.47;;;;;;;-141.97;100.00;47857.38;5082162;28;20188;-86
2023/03/02 07:38:05;;;;;;;49.63;20.30;;;;;;;-141.97;100.00;47874.69;5087129;28;20169;-87
2023/03/02 07:40:31;;;;;;;47.00;20.03;;;;;;;-141.97;100.00;47826.63;5082577;28;20625;-87
2023/03/02 07:42:56;;;;;;;54.23;21.57;;;;;;;-141.97;100.00;47788.19;5078416;28;20161;-91
2023/03/02 07:45:23;;;;;;;44.97;20.47;;;;;;;-141.97;100.00;47828.53;5073112;28;20298;-90
2023/03/02 07:47:49;;;;;;;40.63;17.33;;;;;;;-141.97;100.00;47945.81;5073762;28;20204;-90
2023/03/02 07:50:15;;;;;;;36.80;17.77;;;;;;;-141.97;100.00;47876.59;5057208;28;20172;-89
2023/03/02 07:52:40;;;;;;;40.33;19.13;;;;;;;-141.97;100.00;47911.19;5060363;28;20170;-90
2023/03/02 07:55:06;;;;;;;42.80;19.57;;;;;;;-141.97;100.00;47880.44;5057676;28;20184;-89
2023/03/02 07:57:31;;;;;;;39.90;19.40;;;;;;;-141.97;100.00;47818.94;5061542;28;20244;-89
2023/03/02 07:59:56;;;;;;;41.90;20.10;;;;;;;-141.97;100.00;47853.53;5063997;28;20181;-90
2023/03/02 08:02:24;;;;;;;47.40;21.10;;;;;;;-141.97;100.00;47801.63;5075415;28;20248;-86
2023/03/02 08:04:51;;;;;;;43.17;19.70;;;;;;;-141.97;100.00;47868.91;5084891;28;20188;-89
2023/03/02 08:07:16;;;;;;;44.67;19.83;;;;;;;-141.97;100.00;47795.88;5064122;28;20194;-86
2023/03/02 08:09:42;;;;;;;45.33;20.47;;;;;;;-141.97;100.00;47876.59;5080365;28;20165;-89
2023/03/02 08:12:07;;;;;;;40.70;18.73;;;;;;;-141.97;100.00;47893.91;5061798;28;20201;-90
2023/03/02 08:14:33;;;;;;;47.27;21.60;;;;;;;-141.97;100.00;47742.03;5077824;28;20176;-88
2023/03/02 08:16:58;;;;;;;45.40;21.67;;;;;;;-141.97;100.00;47888.13;5078369;28;20231;-89
2023/03/02 08:19:25;;;;;;;47.53;23.27;;;;;;;-141.97;100.00;47974.63;5097158;28;20599;-90
2023/03/02 08:21:51;;;;;;;41.73;19.90;;;;;;;-141.97;100.00;47845.84;5078858;28;20168;-89
2023/03/02 08:24:16;;;;;;;45.83;20.27;;;;;;;-141.97;100.00;47938.09;5078566;28;20209;-90
2023/03/02 08:26:42;;;;;;;42.70;20.83;;;;;;;-141.97;100.00;47834.31;5098697;28;20190;-89
2023/03/02 08:29:08;;;;;;;45.40;20.60;;;;;;;-141.97;100.00;47895.81;5079937;28;20259;-89
2023/03/02 08:31:33;;;;;;;41.27;18.57;;;;;;;-141.97;100.00;47913.13;5055643;28;20256;-89
2023/03/02 08:33:59;;;;;;;41.53;18.93;;;;;;;-141.97;100.00;47849.69;5048582;28;20275;-88
2023/03/02 08:36:25;;;;;;;39.93;19.03;;;;;;;-141.97;100.00;47742.03;5075803;28;20514;-89
2023/03/02 08:38:50;;;;;;;52.73;20.93;;;;;;;-141.97;100.00;47972.72;5077563;28;20157;-89
2023/03/02 08:41:18;;;;;;;47.50;22.23;;;;;;;-141.97;100.00;47840.06;5076261;28;20222;-89
2023/03/02 08:43:45;;;;;;;54.63;25.40;;;;;;;-141.97;100.00;47803.56;5074410;28;20247;-89
2023/03/02 08:46:15;;;;;;;44.03;20.60;;;;;;;-141.97;100.00;47888.13;5075918;28;20189;-89
2023/03/02 08:48:41;;;;;;;56.23;28.00;;;;;;;-141.97;100.00;47847.75;5080794;28;20177;-87
2023/03/02 08:51:10;;;;;;;49.40;22.03;;;;;;;-141.97;100.00;47959.25;5081156;28;20255;-89
2023/03/02 08:53:39;;;;;;;50.60;22.50;;;;;;;-141.97;100.00;47849.69;5075905;28;20176;-91
2023/03/02 08:56:13;;;;;;;52.07;22.73;;;;;;;-141.97;100.00;47945.81;5059087;28;20157;-88
2023/03/02 08:58:38;;;;;;;51.47;22.87;;;;;;;-141.97;100.00;47940.03;5079260;28;20640;-90
2023/03/02 09:01:04;;;;;;;49.73;21.63;;;;;;;-141.97;100.00;47938.09;5078047;28;20175;-90
2023/03/02 09:03:29;;;;;;;48.90;21.03;;;;;;;-141.97;100.00;47965.03;5070638;28;20232;-89
2023/03/02 09:05:55;;;;;;;46.57;20.70;;;;;;;-141.97;100.00;47815.09;5067448;28;20188;-91
2023/03/02 09:08:20;;;;;;;46.40;21.17;;;;;;;-141.97;100.00;47761.25;5078647;28;20200;-90
2023/03/02 09:10:45;;;;;;;44.00;20.27;;;;;;;-141.97;100.00;47761.25;5067775;28;20165;-89
2023/03/02 09:13:11;;;;;;;45.80;21.47;;;;;;;-141.97;100.00;47953.50;5050526;28;20222;-90
2023/03/02 09:15:36;;;;;;;44.43;20.27;;;;;;;-141.97;100.00;47807.41;5076506;28;20235;-89
2023/03/02 09:18:02;;;;;;;41.87;19.97;;;;;;;-141.97;100.00;47749.72;5060788;28;20267;-89
2023/03/02 09:20:27;;;;;;;42.20;19.90;;;;;;;-141.97;100.00;47888.13;5082525;28;20164;-91
2023/03/02 09:22:53;;;;;;;45.60;20.77;;;;;;;-141.97;100.00;47749.72;5059746;28;20643;-89
2023/03/02 09:25:19;;;;;;;45.57;21.77;;;;;;;-141.97;100.00;47732.44;5061153;28;20197;-90
2023/03/02 09:27:45;;;;;;;45.57;20.53;;;;;;;-141.97;100.00;47776.63;5082820;28;20169;-88
2023/03/02 09:30:12;;;;;;;44.57;21.33;;;;;;;-141.97;100.00;47899.66;5076286;28;20252;-89
2023/03/02 09:32:38;;;;;;;44.50;21.37;;;;;;;-141.97;100.00;47842.00;5059336;28;20226;-89
2023/03/02 09:35:04;;;;;;;45.37;21.87;;;;;;;-141.97;100.00;47824.69;5076070;28;20168;-89
2023/03/02 09:37:29;;;;;;;44.13;21.23;;;;;;;-141.97;100.00;47711.28;5074491;28;20625;-89
2023/03/02 09:39:55;;;;;;;45.20;21.00;;;;;;;-141.97;100.00;47738.19;5060703;28;20165;-89
2023/03/02 09:42:31;;;;;;;45.73;21.40;;;;;;;-141.97;100.00;47888.13;5081614;28;20165;-91
2023/03/02 09:45:02;;;;;;;45.73;21.90;;;;;;;-141.97;100.00;47820.84;5084030;28;20289;-90
2023/03/02 09:47:51;;;;;;;43.60;19.90;;;;;;;-141.97;100.00;47895.81;5078238;28;20191;-90
2023/03/02 09:50:31;;;;;;;43.57;20.07;;;;;;;-141.97;100.00;47907.34;5060174;28;20164;-89
2023/03/02 09:53:15;;;;;;;43.53;19.87;;;;;;;-141.97;100.00;47876.59;5059045;28;20251;-88
2023/03/02 09:55:41;;;;;;;41.70;20.13;;;;;;;-141.97;100.00;47813.16;5061755;28;20572;-89
2023/03/02 09:58:17;;;;;;;40.90;19.60;;;;;;;-141.97;100.00;47743.97;5074219;28;20175;-90
2023/03/02 10:00:44;;;;;;;43.33;20.60;;;;;;;-141.97;100.00;47805.47;5074743;28;20167;-89
2023/03/02 10:03:19;;;;;;;45.73;21.03;;;;;;;-141.97;100.00;47767.03;5056948;28;20674;-89
2023/03/02 10:05:50;;;;;;;40.03;19.90;;;;;;;-141.97;100.00;47888.13;5056972;28;20187;-90
2023/03/02 10:08:24;;;;;;;40.67;18.93;;;;;;;-141.97;100.00;47755.50;5074606;28;20179;-88
2023/03/02 10:10:58;;;;;;;40.90;20.27;;;;;;;-141.97;100.00;47899.66;5060242;28;20164;-89
2023/03/02 10:13:45;;;;;;;43.27;21.20;;;;;;;-141.97;100.00;47865.06;5061067;28;20195;-90
2023/03/02 10:16:49;;;;;;;45.00;20.13;;;;;;;-141.97;100.00;47868.91;5037542;28;20229;-89
2023/03/02 10:19:41;;;;;;;38.07;18.03;;;;;;;-141.97;100.00;47765.09;4964170;28;20231;-89
2023/03/02 10:22:40;;;;;;;41.30;18.87;;;;;;;-141.97;100.00;47888.13;4979483;28;20194;-90
2023/03/02 10:25:22;;;;;;;34.30;16.30;;;;;;;-141.97;100.00;47834.31;4910246;29;20213;-90
2023/03/02 10:27:56;;;;;;;37.57;18.37;;;;;;;-141.97;100.00;47895.81;4911835;29;20225;-90
2023/03/02 10:30:29;;;;;;;40.80;19.60;;;;;;;-141.97;100.00;47861.22;4918521;29;20276;-90
2023/03/02 10:33:00;;;;;;;42.63;19.93;;;;;;;-141.97;100.00;47870.81;4917550;29;20207;-89
2023/03/02 10:35:28;;;;;;;47.47;20.97;;;;;;;-141.97;100.00;47797.78;4929145;29;20193;-89
2023/03/02 10:37:59;;;;;;;46.97;22.33;;;;;;;-141.97;100.00;47895.81;4924332;29;20194;-89
2023/03/02 10:40:41;;;;;;;48.93;22.03;;;;;;;-141.97;100.00;47899.66;4918457;29;20249;-90
2023/03/02 10:43:15;;;;;;;45.27;21.03;;;;;;;-141.97;100.00;47870.81;4919630;29;20229;-91
2023/03/02 10:45:42;;;;;;;45.07;20.80;;;;;;;-141.97;100.00;47767.03;4893459;29;20725;-90
2023/03/02 10:48:13;;;;;;;48.67;23.57;;;;;;;-141.97;100.00;47772.78;4902774;29;20262;-89
2023/03/02 10:50:38;;;;;;;50.83;22.80;;;;;;;-141.97;100.00;47855.44;4899676;29;20202;-90
2023/03/02 10:53:16;;;;;;;48.93;22.00;;;;;;;-141.97;100.00;47940.03;4901559;29;20182;-91
2023/03/02 10:55:47;;;;;;;58.97;23.83;;;;;;;-141.97;100.00;47951.56;4914795;28;20187;-90
2023/03/02 10:58:24;;;;;;;58.47;24.70;;;;;;;-141.97;100.00;47911.19;4973357;28;20254;-89